createdAt,value
2019-01-04T00:00:24.118Z,8.17
2019-01-04T00:02:54.148Z,7.30
2019-01-04T00:05:22.649Z,7.70
2019-01-04T00:07:51.217Z,7.87
2019-01-04T00:10:19.718Z,7.43
2019-01-04T00:12:48.146Z,7.07
2019-01-04T00:15:16.699Z,7.10
2019-01-04T00:17:45.086Z,8.27
2019-01-04T00:20:13.528Z,7.87
2019-01-04T00:22:41.957Z,7.43
2019-01-04T00:25:10.434Z,9.00
2019-01-04T00:27:38.868Z,7.87
2019-01-04T00:30:10.635Z,7.97
2019-01-04T00:32:39.157Z,8.57
2019-01-04T00:35:08.220Z,8.80
2019-01-04T00:37:36.630Z,9.47
2019-01-04T00:40:07.535Z,9.00
2019-01-04T00:42:36.145Z,11.03
2019-01-04T00:45:06.418Z,9.70
2019-01-04T00:47:35.593Z,9.67
2019-01-04T00:50:06.597Z,10.70
2019-01-04T00:52:35.147Z,10.53
2019-01-04T00:55:09.313Z,10.87
2019-01-04T00:57:52.545Z,11.80
2019-01-04T01:00:32.918Z,11.53
2019-01-04T01:03:07.193Z,11.27
2019-01-04T01:05:58.123Z,12.17
2019-01-04T01:08:46.855Z,13.40
2019-01-04T01:11:24.216Z,11.80
2019-01-04T01:13:55.696Z,13.47
2019-01-04T01:16:49.942Z,13.47
2019-01-04T01:19:30.321Z,14.40
2019-01-04T01:22:10.988Z,13.53
2019-01-04T01:25:06.563Z,14.90
2019-01-04T01:28:11.029Z,14.77
2019-01-04T01:31:01.933Z,13.80
2019-01-04T01:33:35.866Z,15.10
2019-01-04T01:36:26.601Z,15.83
2019-01-04T01:39:20.381Z,15.87
2019-01-04T01:42:09.866Z,14.97
2019-01-04T01:44:47.167Z,15.60
2019-01-04T01:47:18.678Z,16.40
2019-01-04T01:49:56.075Z,16.60
2019-01-04T01:52:27.568Z,16.37
2019-01-04T01:54:59.289Z,16.40
2019-01-04T01:57:27.767Z,17.50
2019-01-04T01:59:56.191Z,16.60
2019-01-04T02:02:24.664Z,16.97
2019-01-04T02:04:53.119Z,17.43
2019-01-04T02:07:21.610Z,16.70
2019-01-04T02:09:50.074Z,16.13
2019-01-04T02:12:18.510Z,17.03
2019-01-04T02:14:47.030Z,18.07
2019-01-04T02:17:15.461Z,17.00
2019-01-04T02:19:43.957Z,17.27
2019-01-04T02:22:12.494Z,17.93
2019-01-04T02:24:40.920Z,17.07
2019-01-04T02:27:09.453Z,19.10
2019-01-04T02:29:37.883Z,17.90
2019-01-04T02:32:06.340Z,18.23
2019-01-04T02:34:34.894Z,16.90
2019-01-04T02:37:03.375Z,16.77
2019-01-04T02:39:31.827Z,17.80
2019-01-04T02:42:00.302Z,18.00
2019-01-04T02:44:28.760Z,17.77
2019-01-04T02:46:57.175Z,17.07
2019-01-04T02:49:25.619Z,17.47
2019-01-04T02:51:54.071Z,17.43
2019-01-04T02:54:22.559Z,16.97
2019-01-04T02:56:50.988Z,17.63
2019-01-04T02:59:19.460Z,18.33
2019-01-04T03:01:47.942Z,18.17
2019-01-04T03:04:16.379Z,16.60
2019-01-04T03:06:44.910Z,16.87
2019-01-04T03:09:13.325Z,16.67
2019-01-04T03:11:41.754Z,15.53
2019-01-04T03:14:10.208Z,16.83
2019-01-04T03:16:38.626Z,17.13
2019-01-04T03:19:07.081Z,17.13
2019-01-04T03:21:36.285Z,15.77
2019-01-04T03:24:04.733Z,16.40
2019-01-04T03:26:33.162Z,15.80
2019-01-04T03:29:02.147Z,15.10
2019-01-04T03:31:30.633Z,15.23
2019-01-04T03:33:59.060Z,15.33
2019-01-04T03:36:27.507Z,14.43
2019-01-04T03:38:55.979Z,13.60
2019-01-04T03:41:24.532Z,13.73
2019-01-04T03:43:53.039Z,13.27
2019-01-04T03:46:21.493Z,13.03
2019-01-04T03:48:49.992Z,13.30
2019-01-04T03:51:19.989Z,13.47
2019-01-04T03:53:48.458Z,12.50
2019-01-04T03:56:16.976Z,12.53
2019-01-04T03:58:45.473Z,11.27
2019-01-04T04:01:13.911Z,10.83
2019-01-04T04:03:42.367Z,11.20
2019-01-04T04:06:10.786Z,11.23
2019-01-04T04:08:39.277Z,11.03
2019-01-04T04:11:07.773Z,11.37
2019-01-04T04:13:36.231Z,10.97
2019-01-04T04:16:04.717Z,10.40
2019-01-04T04:18:33.144Z,9.93
2019-01-04T04:21:01.558Z,10.03
2019-01-04T04:23:30.018Z,10.43
2019-01-04T04:25:58.507Z,9.70
2019-01-04T04:28:26.927Z,9.97
2019-01-04T04:30:55.390Z,9.90
2019-01-04T04:33:23.809Z,9.90
2019-01-04T04:35:52.239Z,11.10
2019-01-04T04:38:20.714Z,10.00
2019-01-04T04:40:49.156Z,11.23
2019-01-04T04:43:17.627Z,9.93
2019-01-04T04:45:46.087Z,10.30
2019-01-04T04:48:14.532Z,10.50
2019-01-04T04:50:42.988Z,10.53
2019-01-04T04:53:11.529Z,10.07
2019-01-04T04:55:39.954Z,9.43
2019-01-04T04:58:08.424Z,9.40
2019-01-04T05:00:36.872Z,10.33
2019-01-04T05:03:05.322Z,10.30
2019-01-04T05:05:38.862Z,9.97
2019-01-04T05:08:07.239Z,10.83
2019-01-04T05:10:41.634Z,10.27
2019-01-04T05:13:10.046Z,9.67
2019-01-04T05:15:38.608Z,9.87
2019-01-04T05:18:07.042Z,11.03
2019-01-04T05:20:35.465Z,9.63
2019-01-04T05:23:03.934Z,10.23
2019-01-04T05:25:32.366Z,10.70
2019-01-04T05:28:00.897Z,10.30
2019-01-04T05:30:29.321Z,10.10
2019-01-04T05:32:57.770Z,11.10
2019-01-04T05:35:26.656Z,11.50
2019-01-04T05:37:55.132Z,11.00
2019-01-04T05:40:23.546Z,10.97
2019-01-04T05:42:51.987Z,10.73
2019-01-04T05:45:20.451Z,11.27
2019-01-04T05:47:48.909Z,11.97
2019-01-04T05:50:17.342Z,11.97
2019-01-04T05:52:45.764Z,12.53
2019-01-04T05:55:14.230Z,12.13
2019-01-04T05:57:42.663Z,12.80
2019-01-04T06:00:11.582Z,12.20
2019-01-04T06:02:40.013Z,12.10
2019-01-04T06:05:08.608Z,11.60
2019-01-04T06:07:37.069Z,12.53
2019-01-04T06:10:07.450Z,12.80
2019-01-04T06:12:35.989Z,11.87
2019-01-04T06:15:05.405Z,12.67
2019-01-04T06:17:33.886Z,12.67
2019-01-04T06:20:02.261Z,12.77
2019-01-04T06:22:30.743Z,12.77
2019-01-04T06:24:59.169Z,12.30
2019-01-04T06:27:27.609Z,12.23
2019-01-04T06:29:56.127Z,13.03
2019-01-04T06:32:24.558Z,12.50
2019-01-04T06:34:53.049Z,12.57
2019-01-04T06:37:21.491Z,12.97
2019-01-04T06:39:49.874Z,12.03
2019-01-04T06:42:18.813Z,13.67
2019-01-04T06:44:47.276Z,13.57
2019-01-04T06:47:18.707Z,15.40
2019-01-04T06:49:47.171Z,13.83
2019-01-04T06:52:15.581Z,13.17
2019-01-04T06:55:18.980Z,14.13
2019-01-04T06:57:53.428Z,13.57
2019-01-04T07:00:21.883Z,13.60
2019-01-04T07:02:50.445Z,13.13
2019-01-04T07:05:18.972Z,13.67
2019-01-04T07:07:47.732Z,13.57
2019-01-04T07:10:16.294Z,13.93
2019-01-04T07:12:45.582Z,13.60
2019-01-04T07:15:14.032Z,13.53
2019-01-04T07:17:42.475Z,14.70
2019-01-04T07:20:11.017Z,14.97
2019-01-04T07:22:39.496Z,14.17
2019-01-04T07:25:07.902Z,15.40
2019-01-04T07:27:36.319Z,13.43
2019-01-04T07:30:07.222Z,13.87
2019-01-04T07:32:35.684Z,14.27
2019-01-04T07:35:04.392Z,13.67
2019-01-04T07:37:32.824Z,14.10
2019-01-04T07:40:01.274Z,13.67
2019-01-04T07:42:29.747Z,13.47
2019-01-04T07:44:58.174Z,13.87
2019-01-04T07:47:26.622Z,14.70
2019-01-04T07:49:55.076Z,13.10
2019-01-04T07:52:23.535Z,14.00
2019-01-04T07:54:54.267Z,14.17
2019-01-04T07:57:22.732Z,13.67
2019-01-04T07:59:51.153Z,13.97
2019-01-04T08:02:45.474Z,13.73
2019-01-04T08:05:16.449Z,14.13
2019-01-04T08:07:44.841Z,13.93
2019-01-04T08:10:13.987Z,13.93
2019-01-04T08:12:42.474Z,14.53
2019-01-04T08:15:11.467Z,13.70
2019-01-04T08:17:40.013Z,14.07
2019-01-04T08:20:10.772Z,14.50
2019-01-04T08:22:39.284Z,13.80
2019-01-04T08:25:08.642Z,12.97
2019-01-04T08:27:37.060Z,14.33
2019-01-04T08:30:11.000Z,13.43
2019-01-04T08:32:39.412Z,12.47
2019-01-04T08:35:07.834Z,13.83
2019-01-04T08:37:36.381Z,13.17
2019-01-04T08:40:07.839Z,14.33
2019-01-04T08:42:37.405Z,13.27
2019-01-04T08:45:07.664Z,14.57
2019-01-04T08:47:36.111Z,13.70
2019-01-04T08:50:06.973Z,14.43
2019-01-04T08:52:35.532Z,13.33
2019-01-04T08:55:06.095Z,14.20
2019-01-04T08:57:34.759Z,14.27
2019-01-04T09:00:04.111Z,15.00
2019-01-04T09:02:32.560Z,14.00
2019-01-04T09:05:02.558Z,14.23
2019-01-04T09:07:30.998Z,14.47
2019-01-04T09:09:59.775Z,15.07
2019-01-04T09:12:28.202Z,14.33
2019-01-04T09:14:56.736Z,14.40
2019-01-04T09:17:25.171Z,14.17
2019-01-04T09:19:53.609Z,14.17
2019-01-04T09:22:22.132Z,14.47
2019-01-04T09:24:50.544Z,14.53
2019-01-04T09:27:20.329Z,13.97
2019-01-04T09:29:48.792Z,14.90
2019-01-04T09:32:17.219Z,13.83
2019-01-04T09:34:45.648Z,13.77
2019-01-04T09:37:14.233Z,13.40
2019-01-04T09:39:48.410Z,14.43
2019-01-04T09:42:14.932Z,13.53
2019-01-04T09:44:44.001Z,14.27
2019-01-04T09:47:12.733Z,14.13
2019-01-04T09:49:41.168Z,14.97
2019-01-04T09:52:09.731Z,13.37
2019-01-04T09:54:38.166Z,14.30
2019-01-04T09:57:06.658Z,13.33
2019-01-04T09:59:35.120Z,12.90
2019-01-04T10:02:03.646Z,13.63
2019-01-04T10:04:32.055Z,14.97
2019-01-04T10:07:00.474Z,12.57
2019-01-04T10:09:29.081Z,12.63
2019-01-04T10:11:57.497Z,12.03
2019-01-04T10:14:25.936Z,11.50
2019-01-04T10:16:54.397Z,12.00
2019-01-04T10:19:22.880Z,11.93
2019-01-04T10:21:51.312Z,11.93
2019-01-04T10:24:19.778Z,12.93
2019-01-04T10:26:48.218Z,12.53
2019-01-04T10:29:16.678Z,13.57
2019-01-04T10:31:45.139Z,15.27
2019-01-04T10:34:13.594Z,15.47
2019-01-04T10:36:42.529Z,15.43
2019-01-04T10:39:10.990Z,15.27
2019-01-04T10:41:41.546Z,14.97
2019-01-04T10:44:10.033Z,14.73
2019-01-04T10:46:38.482Z,13.07
2019-01-04T10:49:06.986Z,13.23
2019-01-04T10:51:35.448Z,14.03
2019-01-04T10:54:03.927Z,11.93
2019-01-04T10:56:32.381Z,11.47
2019-01-04T10:59:00.869Z,10.37
2019-01-04T11:01:29.284Z,10.70
2019-01-04T11:03:57.758Z,9.70
2019-01-04T11:06:26.208Z,9.37
2019-01-04T11:08:54.616Z,9.30
2019-01-04T11:11:23.081Z,9.07
2019-01-04T11:13:51.533Z,9.17
2019-01-04T11:16:20.817Z,9.40
2019-01-04T11:18:49.284Z,10.23
2019-01-04T11:21:17.764Z,9.50
2019-01-04T11:23:55.097Z,9.97
2019-01-04T11:26:26.571Z,9.53
2019-01-04T11:29:26.695Z,9.40
2019-01-04T11:32:03.770Z,10.03
2019-01-04T11:34:41.013Z,9.63
2019-01-04T11:37:28.811Z,11.07
2019-01-04T11:40:15.509Z,11.67
2019-01-04T11:42:58.879Z,10.90
2019-01-04T11:45:32.891Z,9.63
2019-01-04T11:48:16.479Z,8.50
2019-01-04T11:50:56.221Z,9.23
2019-01-04T11:53:24.763Z,7.60
2019-01-04T11:55:53.680Z,7.73
2019-01-04T11:58:22.102Z,7.60
2019-01-04T12:00:51.870Z,7.47
2019-01-04T12:03:20.354Z,7.20
2019-01-04T12:05:48.882Z,7.30
2019-01-04T12:08:17.946Z,6.90
2019-01-04T12:10:46.424Z,7.20
2019-01-04T12:13:14.865Z,7.43
2019-01-04T12:15:43.298Z,8.43
2019-01-04T12:18:11.704Z,8.47
2019-01-04T12:20:45.425Z,7.77
2019-01-04T12:23:11.224Z,7.67
2019-01-04T12:25:40.083Z,7.97
2019-01-04T12:28:08.522Z,7.53
2019-01-04T12:30:36.955Z,7.33
2019-01-04T12:33:05.385Z,7.60
2019-01-04T12:35:33.847Z,7.50
2019-01-04T12:38:02.330Z,7.20
2019-01-04T12:40:30.846Z,7.13
2019-01-04T12:43:11.200Z,7.40
2019-01-04T12:45:39.718Z,7.57
2019-01-04T12:48:11.106Z,7.50
2019-01-04T12:50:39.519Z,8.33
2019-01-04T12:53:08.022Z,7.97
2019-01-04T12:55:36.454Z,7.63
2019-01-04T12:58:04.895Z,7.07
2019-01-04T13:00:33.392Z,7.10
2019-01-04T13:03:01.838Z,7.73
2019-01-04T13:05:30.303Z,7.73
2019-01-04T13:07:58.755Z,7.87
2019-01-04T13:10:27.233Z,8.30
2019-01-04T13:12:55.671Z,7.20
2019-01-04T13:15:24.101Z,7.97
2019-01-04T13:17:53.191Z,8.07
2019-01-04T13:20:21.616Z,7.50
2019-01-04T13:22:50.099Z,8.73
2019-01-04T13:25:18.529Z,7.40
2019-01-04T13:27:46.966Z,8.10
2019-01-04T13:30:15.500Z,8.83
2019-01-04T13:32:43.906Z,7.73
2019-01-04T13:35:12.369Z,9.03
2019-01-04T13:37:41.089Z,8.87
2019-01-04T13:40:09.536Z,10.70
2019-01-04T13:42:37.944Z,10.67
2019-01-04T13:45:07.648Z,9.77
2019-01-04T13:47:36.148Z,10.90
2019-01-04T13:50:05.425Z,11.63
2019-01-04T13:52:33.888Z,12.07
2019-01-04T13:55:02.339Z,12.43
2019-01-04T13:57:30.749Z,12.23
2019-01-04T13:59:59.224Z,11.97
2019-01-04T14:02:28.710Z,12.73
2019-01-04T14:04:57.125Z,12.33
2019-01-04T14:07:25.567Z,11.90
2019-01-04T14:09:54.008Z,11.10
2019-01-04T14:12:22.443Z,12.70
2019-01-04T14:14:50.922Z,11.13
2019-01-04T14:17:19.329Z,11.27
2019-01-04T14:19:57.911Z,12.70
2019-01-04T14:22:26.718Z,12.87
2019-01-04T14:24:55.196Z,12.67
2019-01-04T14:27:23.786Z,13.10
2019-01-04T14:29:52.242Z,13.30
2019-01-04T14:32:20.829Z,14.10
2019-01-04T14:34:49.325Z,13.77
2019-01-04T14:37:17.754Z,13.80
2019-01-04T14:39:46.291Z,14.70
2019-01-04T14:42:14.702Z,14.63
2019-01-04T14:44:43.249Z,13.37
2019-01-04T14:47:11.939Z,13.97
2019-01-04T14:49:40.635Z,14.53
2019-01-04T14:52:09.269Z,14.63
2019-01-04T14:54:37.696Z,15.00
2019-01-04T14:57:06.158Z,15.03
2019-01-04T14:59:34.651Z,15.93
2019-01-04T15:02:03.466Z,14.93
2019-01-04T15:04:31.960Z,15.53
2019-01-04T15:07:00.457Z,15.93
2019-01-04T15:09:31.186Z,16.33
2019-01-04T15:11:59.794Z,14.60
2019-01-04T15:14:28.210Z,15.40
2019-01-04T15:16:56.839Z,15.37
2019-01-04T15:19:25.306Z,15.97
2019-01-04T15:21:54.020Z,14.20
2019-01-04T15:24:22.665Z,15.90
2019-01-04T15:26:51.533Z,16.17
2019-01-04T15:29:20.345Z,15.00
2019-01-04T15:31:48.893Z,15.47
2019-01-04T15:34:17.777Z,16.40
2019-01-04T15:36:46.156Z,16.17
2019-01-04T15:39:14.912Z,15.93
2019-01-04T15:41:43.368Z,16.57
2019-01-04T15:44:11.873Z,15.80
2019-01-04T15:46:40.478Z,15.27
2019-01-04T15:49:08.969Z,14.17
2019-01-04T15:51:37.496Z,14.57
2019-01-04T15:54:05.974Z,14.30
2019-01-04T15:56:34.738Z,13.40
2019-01-04T15:59:03.191Z,13.20
2019-01-04T16:01:31.663Z,12.43
2019-01-04T16:04:00.199Z,14.17
2019-01-04T16:06:28.694Z,15.50
2019-01-04T16:08:57.168Z,15.60
2019-01-04T16:11:25.606Z,15.40
2019-01-04T16:13:54.142Z,16.17
2019-01-04T16:16:22.557Z,14.20
2019-01-04T16:18:51.060Z,14.83
2019-01-04T16:21:19.566Z,14.50
2019-01-04T16:23:48.014Z,14.27
2019-01-04T16:26:16.450Z,14.80
2019-01-04T16:28:44.915Z,15.00
2019-01-04T16:31:13.351Z,15.37
2019-01-04T16:33:41.811Z,14.83
2019-01-04T16:36:10.242Z,14.80
2019-01-04T16:38:38.692Z,15.30
2019-01-04T16:41:07.132Z,13.70
2019-01-04T16:43:35.568Z,14.37
2019-01-04T16:46:04.859Z,14.93
2019-01-04T16:48:33.388Z,15.63
2019-01-04T16:51:01.825Z,14.60
2019-01-04T16:53:30.265Z,15.70
2019-01-04T16:55:58.683Z,15.20
2019-01-04T16:58:27.138Z,14.67
2019-01-04T17:00:55.570Z,14.70
2019-01-04T17:03:24.003Z,14.50
2019-01-04T17:05:52.610Z,13.50
2019-01-04T17:08:21.144Z,14.57
2019-01-04T17:10:49.605Z,14.40
2019-01-04T17:13:18.030Z,14.70
2019-01-04T17:15:46.450Z,15.50
2019-01-04T17:18:14.935Z,15.30
2019-01-04T17:20:43.402Z,15.03
2019-01-04T17:23:13.454Z,16.17
2019-01-04T17:25:41.969Z,14.00
2019-01-04T17:28:10.380Z,15.53
2019-01-04T17:30:39.030Z,14.40
2019-01-04T17:33:07.721Z,15.00
2019-01-04T17:35:36.222Z,14.93
2019-01-04T17:38:04.674Z,15.93
2019-01-04T17:40:34.767Z,16.20
2019-01-04T17:43:03.227Z,16.03
2019-01-04T17:45:31.690Z,15.27
2019-01-04T17:48:00.186Z,14.17
2019-01-04T17:50:28.653Z,15.10
2019-01-04T17:52:57.086Z,14.30
2019-01-04T17:55:25.603Z,15.87
2019-01-04T17:57:54.063Z,15.73
2019-01-04T18:00:23.255Z,16.63
2019-01-04T18:02:51.783Z,16.13
2019-01-04T18:05:20.310Z,17.50
2019-01-04T18:07:48.744Z,16.93
2019-01-04T18:10:17.187Z,16.37
2019-01-04T18:12:45.636Z,17.47
2019-01-04T18:15:14.065Z,18.33
2019-01-04T18:17:42.525Z,18.03
2019-01-04T18:20:11.106Z,18.73
2019-01-04T18:22:39.470Z,17.90
2019-01-04T18:25:08.414Z,16.87
2019-01-04T18:27:36.926Z,17.90
2019-01-04T18:30:08.623Z,16.80
2019-01-04T18:32:37.068Z,16.43
2019-01-04T18:35:19.836Z,16.40
2019-01-04T18:37:48.306Z,15.67
2019-01-04T18:40:16.726Z,16.37
2019-01-04T18:42:45.252Z,15.33
2019-01-04T18:45:13.821Z,16.30
2019-01-04T18:47:42.262Z,17.10
2019-01-04T18:50:13.105Z,15.97
2019-01-04T18:52:41.566Z,14.80
2019-01-04T18:55:10.089Z,15.57
2019-01-04T18:57:38.525Z,15.53
2019-01-04T19:00:10.076Z,15.33
2019-01-04T19:02:38.541Z,15.27
2019-01-04T19:05:08.016Z,14.37
2019-01-04T19:07:36.460Z,14.00
2019-01-04T19:10:06.973Z,14.63
2019-01-04T19:12:35.428Z,15.13
2019-01-04T19:15:04.990Z,13.93
2019-01-04T19:17:33.424Z,15.20
2019-01-04T19:20:01.909Z,13.20
2019-01-04T19:22:30.325Z,12.77
2019-01-04T19:24:58.752Z,11.80
2019-01-04T19:27:27.251Z,12.80
2019-01-04T19:29:55.694Z,11.97
2019-01-04T19:32:24.122Z,11.77
2019-01-04T19:34:52.611Z,12.93
2019-01-04T19:37:21.195Z,12.30
2019-01-04T19:39:49.666Z,12.17
2019-01-04T19:42:18.088Z,11.20
2019-01-04T19:44:46.641Z,11.43
2019-01-04T19:47:15.095Z,11.20
2019-01-04T19:49:43.566Z,10.73
2019-01-04T19:52:12.037Z,12.67
2019-01-04T19:54:40.504Z,10.40
2019-01-04T19:57:08.918Z,11.00
2019-01-04T19:59:37.333Z,10.90
2019-01-04T20:02:06.042Z,10.90
2019-01-04T20:04:34.495Z,11.03
2019-01-04T20:07:35.953Z,10.27
2019-01-04T20:10:51.764Z,11.37
2019-01-04T20:13:42.748Z,10.90
2019-01-04T20:16:33.234Z,11.03
2019-01-04T20:19:19.628Z,11.10
2019-01-04T20:21:50.168Z,11.00
2019-01-04T20:24:20.249Z,11.50
2019-01-04T20:26:59.244Z,10.43
2019-01-04T20:29:45.547Z,11.03
2019-01-04T20:32:21.347Z,10.90
2019-01-04T20:35:07.495Z,11.57
2019-01-04T20:37:43.383Z,11.20
2019-01-04T20:40:19.235Z,11.63
2019-01-04T20:43:04.521Z,11.93
2019-01-04T20:45:34.593Z,11.60
2019-01-04T20:48:07.379Z,11.67
2019-01-04T20:50:53.696Z,12.40
2019-01-04T20:53:23.797Z,12.57
2019-01-04T20:56:02.386Z,13.63
2019-01-04T20:58:32.451Z,11.93
2019-01-04T21:01:08.786Z,12.80
2019-01-04T21:03:44.618Z,12.97
2019-01-04T21:06:26.837Z,12.53
2019-01-04T21:09:13.372Z,11.97
2019-01-04T21:11:43.457Z,12.60
2019-01-04T21:14:29.628Z,12.40
2019-01-04T21:17:16.243Z,11.70
2019-01-04T21:20:02.887Z,11.70
2019-01-04T21:22:35.712Z,11.93
2019-01-04T21:25:06.401Z,12.00
2019-01-04T21:27:39.205Z,13.90
2019-01-04T21:30:09.437Z,13.30
2019-01-04T21:32:54.460Z,13.83
2019-01-04T21:35:27.569Z,14.47
2019-01-04T21:38:00.797Z,14.40
2019-01-04T21:40:45.561Z,14.50
2019-01-04T21:43:21.628Z,15.47
2019-01-04T21:45:54.636Z,15.00
2019-01-04T21:48:24.700Z,14.20
2019-01-04T21:51:11.081Z,15.33
2019-01-04T21:53:57.553Z,15.40
2019-01-04T21:56:36.647Z,14.80
2019-01-04T21:59:22.541Z,15.00
2019-01-04T22:02:08.735Z,14.77
2019-01-04T22:04:53.415Z,15.90
2019-01-04T22:07:35.541Z,14.90
2019-01-04T22:10:06.157Z,15.57
2019-01-04T22:12:39.048Z,15.73
2019-01-04T22:15:09.224Z,15.07
2019-01-04T22:17:57.254Z,15.40
2019-01-04T22:20:29.934Z,15.17
2019-01-04T22:23:02.485Z,15.83
2019-01-04T22:25:38.284Z,14.57
2019-01-04T22:28:23.377Z,14.97
2019-01-04T22:30:59.041Z,15.00
2019-01-04T22:33:47.183Z,14.10
2019-01-04T22:36:33.187Z,14.53
2019-01-04T22:39:03.260Z,15.13
2019-01-04T22:41:33.340Z,14.53
2019-01-04T22:44:05.887Z,13.87
2019-01-04T22:46:35.939Z,14.97
2019-01-04T22:49:08.496Z,13.47
2019-01-04T22:51:53.574Z,13.80
2019-01-04T22:54:23.694Z,12.97
2019-01-04T22:57:06.040Z,13.33
2019-01-04T22:59:44.627Z,13.27
2019-01-04T23:02:17.671Z,12.40
2019-01-04T23:04:53.211Z,11.70
2019-01-04T23:07:35.193Z,11.60
2019-01-04T23:10:05.633Z,11.17
2019-01-04T23:12:47.464Z,11.50
2019-01-04T23:15:33.606Z,10.60
2019-01-04T23:18:03.699Z,10.57
2019-01-04T23:20:50.024Z,11.83
2019-01-04T23:23:36.194Z,10.17
2019-01-04T23:26:06.285Z,10.97
2019-01-04T23:28:42.507Z,11.57
2019-01-04T23:31:15.538Z,11.07
2019-01-04T23:33:45.616Z,10.67
2019-01-04T23:36:24.717Z,11.03
2019-01-04T23:39:11.489Z,13.37
2019-01-04T23:41:58.097Z,11.93
2019-01-04T23:44:33.704Z,10.70
2019-01-04T23:47:20.432Z,11.77
2019-01-04T23:49:59.198Z,10.00
2019-01-04T23:52:34.921Z,11.20
2019-01-04T23:55:21.527Z,10.40
2019-01-04T23:58:07.860Z,10.87
